sensor_id;sensor_type;location;lat;lon;timestamp;temperature;humidity
48686;DHT22;34485;51.536;3.816;2023-06-14T00:01:22;18.50;82.70
48686;DHT22;34485;51.536;3.816;2023-06-14T00:03:47;18.50;82.50
48686;DHT22;34485;51.536;3.816;2023-06-14T00:06:14;18.40;82.60
48686;DHT22;34485;51.536;3.816;2023-06-14T00:08:40;18.40;82.90
48686;DHT22;34485;51.536;3.816;2023-06-14T00:11:06;18.30;82.90
48686;DHT22;34485;51.536;3.816;2023-06-14T00:13:32;18.20;83.40
48686;DHT22;34485;51.536;3.816;2023-06-14T00:18:24;18.10;83.90
48686;DHT22;34485;51.536;3.816;2023-06-14T00:20:50;18.00;85.30
48686;DHT22;34485;51.536;3.816;2023-06-14T00:23:17;17.90;85.30
48686;DHT22;34485;51.536;3.816;2023-06-14T00:25:43;17.90;85.50
48686;DHT22;34485;51.536;3.816;2023-06-14T00:28:08;17.90;85.40
48686;DHT22;34485;51.536;3.816;2023-06-14T00:30:34;17.80;85.70
48686;DHT22;34485;51.536;3.816;2023-06-14T00:33:00;17.80;86.10
48686;DHT22;34485;51.536;3.816;2023-06-14T00:35:25;17.70;85.70
48686;DHT22;34485;51.536;3.816;2023-06-14T00:37:51;17.70;85.70
48686;DHT22;34485;51.536;3.816;2023-06-14T00:40:17;17.70;85.70
48686;DHT22;34485;51.536;3.816;2023-06-14T00:42:42;17.70;87.20
48686;DHT22;34485;51.536;3.816;2023-06-14T00:45:09;17.60;86.80
48686;DHT22;34485;51.536;3.816;2023-06-14T00:47:36;17.60;86.80
48686;DHT22;34485;51.536;3.816;2023-06-14T00:50:03;17.50;86.30
48686;DHT22;34485;51.536;3.816;2023-06-14T00:52:31;17.50;86.00
48686;DHT22;34485;51.536;3.816;2023-06-14T00:54:58;17.40;86.10
48686;DHT22;34485;51.536;3.816;2023-06-14T00:57:23;17.40;86.30
48686;DHT22;34485;51.536;3.816;2023-06-14T00:59:49;17.40;86.20
48686;DHT22;34485;51.536;3.816;2023-06-14T01:02:16;17.40;86.20
48686;DHT22;34485;51.536;3.816;2023-06-14T01:04:45;17.30;86.20
48686;DHT22;34485;51.536;3.816;2023-06-14T01:15:39;17.20;86.70
48686;DHT22;34485;51.536;3.816;2023-06-14T01:18:06;17.10;86.90
48686;DHT22;34485;51.536;3.816;2023-06-14T01:20:33;17.10;87.10
48686;DHT22;34485;51.536;3.816;2023-06-14T01:23:02;17.10;87.30
48686;DHT22;34485;51.536;3.816;2023-06-14T01:25:28;17.10;87.60
48686;DHT22;34485;51.536;3.816;2023-06-14T01:28:05;17.10;87.50
48686;DHT22;34485;51.536;3.816;2023-06-14T01:30:41;17.10;88.10
48686;DHT22;34485;51.536;3.816;2023-06-14T01:33:18;17.10;88.80
48686;DHT22;34485;51.536;3.816;2023-06-14T01:35:47;17.10;89.70
48686;DHT22;34485;51.536;3.816;2023-06-14T01:38:13;17.10;90.00
48686;DHT22;34485;51.536;3.816;2023-06-14T01:40:41;17.00;90.20
48686;DHT22;34485;51.536;3.816;2023-06-14T01:43:08;17.00;90.70
48686;DHT22;34485;51.536;3.816;2023-06-14T01:45:36;16.90;90.30
48686;DHT22;34485;51.536;3.816;2023-06-14T01:48:02;16.80;90.60
48686;DHT22;34485;51.536;3.816;2023-06-14T01:50:30;16.80;90.50
48686;DHT22;34485;51.536;3.816;2023-06-14T01:52:56;16.70;90.70
48686;DHT22;34485;51.536;3.816;2023-06-14T01:55:22;16.60;90.80
48686;DHT22;34485;51.536;3.816;2023-06-14T01:57:47;16.60;90.90
48686;DHT22;34485;51.536;3.816;2023-06-14T02:00:14;16.50;91.00
48686;DHT22;34485;51.536;3.816;2023-06-14T02:02:41;16.50;91.10
48686;DHT22;34485;51.536;3.816;2023-06-14T02:05:07;16.40;91.20
48686;DHT22;34485;51.536;3.816;2023-06-14T02:07:33;16.40;91.20
48686;DHT22;34485;51.536;3.816;2023-06-14T02:09:59;16.30;91.40
48686;DHT22;34485;51.536;3.816;2023-06-14T02:12:25;16.20;91.50
48686;DHT22;34485;51.536;3.816;2023-06-14T02:14:51;16.10;91.70
48686;DHT22;34485;51.536;3.816;2023-06-14T02:17:16;16.10;92.20
48686;DHT22;34485;51.536;3.816;2023-06-14T02:19:42;16.00;92.50
48686;DHT22;34485;51.536;3.816;2023-06-14T02:22:09;16.00;92.80
48686;DHT22;34485;51.536;3.816;2023-06-14T02:24:34;15.90;92.90
48686;DHT22;34485;51.536;3.816;2023-06-14T02:27:01;15.80;93.20
48686;DHT22;34485;51.536;3.816;2023-06-14T02:29:27;15.70;93.50
48686;DHT22;34485;51.536;3.816;2023-06-14T02:31:52;15.80;94.00
48686;DHT22;34485;51.536;3.816;2023-06-14T02:34:18;15.80;94.10
48686;DHT22;34485;51.536;3.816;2023-06-14T02:36:45;15.80;94.10
48686;DHT22;34485;51.536;3.816;2023-06-14T02:39:13;15.70;94.20
48686;DHT22;34485;51.536;3.816;2023-06-14T02:41:39;15.70;94.20
48686;DHT22;34485;51.536;3.816;2023-06-14T02:44:05;15.70;94.00
48686;DHT22;34485;51.536;3.816;2023-06-14T02:46:31;15.60;94.10
48686;DHT22;34485;51.536;3.816;2023-06-14T02:48:56;15.60;94.40
48686;DHT22;34485;51.536;3.816;2023-06-14T02:51:22;15.50;94.90
48686;DHT22;34485;51.536;3.816;2023-06-14T02:53:47;15.50;94.90
48686;DHT22;34485;51.536;3.816;2023-06-14T02:56:13;15.50;95.10
48686;DHT22;34485;51.536;3.816;2023-06-14T02:58:39;15.50;95.10
48686;DHT22;34485;51.536;3.816;2023-06-14T03:01:06;15.40;95.30
48686;DHT22;34485;51.536;3.816;2023-06-14T03:03:33;15.40;95.40
48686;DHT22;34485;51.536;3.816;2023-06-14T03:05:59;15.40;95.00
48686;DHT22;34485;51.536;3.816;2023-06-14T03:08:30;15.40;94.90
48686;DHT22;34485;51.536;3.816;2023-06-14T03:10:58;15.40;94.90
48686;DHT22;34485;51.536;3.816;2023-06-14T03:13:24;15.40;95.00
48686;DHT22;34485;51.536;3.816;2023-06-14T03:15:49;15.30;95.40
48686;DHT22;34485;51.536;3.816;2023-06-14T03:18:18;15.30;95.70
48686;DHT22;34485;51.536;3.816;2023-06-14T03:20:44;15.30;95.70
48686;DHT22;34485;51.536;3.816;2023-06-14T03:23:11;15.30;95.60
48686;DHT22;34485;51.536;3.816;2023-06-14T03:25:37;15.30;95.50
48686;DHT22;34485;51.536;3.816;2023-06-14T03:28:04;15.30;95.50
48686;DHT22;34485;51.536;3.816;2023-06-14T03:30:31;15.20;95.80
48686;DHT22;34485;51.536;3.816;2023-06-14T03:32:57;15.20;95.80
48686;DHT22;34485;51.536;3.816;2023-06-14T03:35:23;15.30;96.00
48686;DHT22;34485;51.536;3.816;2023-06-14T03:37:48;15.30;95.80
48686;DHT22;34485;51.536;3.816;2023-06-14T03:40:18;15.40;95.60
48686;DHT22;34485;51.536;3.816;2023-06-14T03:42:44;15.50;94.90
48686;DHT22;34485;51.536;3.816;2023-06-14T03:45:10;15.60;94.70
48686;DHT22;34485;51.536;3.816;2023-06-14T03:47:36;15.60;94.30
48686;DHT22;34485;51.536;3.816;2023-06-14T03:50:03;15.70;94.30
48686;DHT22;34485;51.536;3.816;2023-06-14T03:52:29;15.80;94.10
48686;DHT22;34485;51.536;3.816;2023-06-14T03:54:55;15.90;93.60
48686;DHT22;34485;51.536;3.816;2023-06-14T03:57:23;16.00;93.20
48686;DHT22;34485;51.536;3.816;2023-06-14T03:59:48;16.00;92.90
48686;DHT22;34485;51.536;3.816;2023-06-14T04:02:14;16.10;92.10
48686;DHT22;34485;51.536;3.816;2023-06-14T04:04:43;16.30;91.70
48686;DHT22;34485;51.536;3.816;2023-06-14T04:07:14;16.40;91.00
48686;DHT22;34485;51.536;3.816;2023-06-14T04:09:40;16.50;90.50
48686;DHT22;34485;51.536;3.816;2023-06-14T04:12:06;16.60;90.40
48686;DHT22;34485;51.536;3.816;2023-06-14T04:14:34;16.70;89.60
48686;DHT22;34485;51.536;3.816;2023-06-14T04:17:00;16.80;89.40
48686;DHT22;34485;51.536;3.816;2023-06-14T04:19:26;16.90;88.90
48686;DHT22;34485;51.536;3.816;2023-06-14T04:21:51;17.00;89.70
48686;DHT22;34485;51.536;3.816;2023-06-14T04:24:17;17.10;87.90
48686;DHT22;34485;51.536;3.816;2023-06-14T04:26:44;17.20;87.60
48686;DHT22;34485;51.536;3.816;2023-06-14T04:29:13;17.30;86.80
48686;DHT22;34485;51.536;3.816;2023-06-14T04:31:43;17.30;86.50
48686;DHT22;34485;51.536;3.816;2023-06-14T04:34:09;17.40;85.50
48686;DHT22;34485;51.536;3.816;2023-06-14T04:36:42;17.50;85.70
48686;DHT22;34485;51.536;3.816;2023-06-14T04:39:15;17.60;85.70
48686;DHT22;34485;51.536;3.816;2023-06-14T04:41:43;17.60;84.20
48686;DHT22;34485;51.536;3.816;2023-06-14T04:44:08;17.80;83.70
48686;DHT22;34485;51.536;3.816;2023-06-14T04:46:35;17.90;83.90
48686;DHT22;34485;51.536;3.816;2023-06-14T04:49:09;17.90;82.50
48686;DHT22;34485;51.536;3.816;2023-06-14T04:51:35;18.00;83.40
48686;DHT22;34485;51.536;3.816;2023-06-14T04:54:02;18.10;83.40
48686;DHT22;34485;51.536;3.816;2023-06-14T04:56:30;18.20;82.00
48686;DHT22;34485;51.536;3.816;2023-06-14T04:58:55;18.30;80.90
48686;DHT22;34485;51.536;3.816;2023-06-14T05:01:22;18.30;80.90
48686;DHT22;34485;51.536;3.816;2023-06-14T05:03:49;18.40;82.00
48686;DHT22;34485;51.536;3.816;2023-06-14T05:06:15;18.40;81.60
48686;DHT22;34485;51.536;3.816;2023-06-14T05:08:41;18.50;82.50
48686;DHT22;34485;51.536;3.816;2023-06-14T05:11:07;18.60;81.70
48686;DHT22;34485;51.536;3.816;2023-06-14T05:13:32;18.60;81.10
48686;DHT22;34485;51.536;3.816;2023-06-14T05:15:59;18.70;81.60
48686;DHT22;34485;51.536;3.816;2023-06-14T05:18:26;18.80;81.70
48686;DHT22;34485;51.536;3.816;2023-06-14T05:20:51;18.90;81.30
48686;DHT22;34485;51.536;3.816;2023-06-14T05:23:17;19.00;81.70
48686;DHT22;34485;51.536;3.816;2023-06-14T05:25:43;19.00;80.20
48686;DHT22;34485;51.536;3.816;2023-06-14T05:28:09;19.10;79.70
48686;DHT22;34485;51.536;3.816;2023-06-14T05:30:35;19.20;78.40
48686;DHT22;34485;51.536;3.816;2023-06-14T05:33:01;19.10;78.40
48686;DHT22;34485;51.536;3.816;2023-06-14T05:35:26;19.20;78.70
48686;DHT22;34485;51.536;3.816;2023-06-14T05:37:52;19.30;79.60
48686;DHT22;34485;51.536;3.816;2023-06-14T05:40:19;19.30;80.40
48686;DHT22;34485;51.536;3.816;2023-06-14T05:42:45;19.40;80.90
48686;DHT22;34485;51.536;3.816;2023-06-14T05:45:11;19.40;79.80
48686;DHT22;34485;51.536;3.816;2023-06-14T05:47:37;19.50;79.60
48686;DHT22;34485;51.536;3.816;2023-06-14T05:50:03;19.50;78.90
48686;DHT22;34485;51.536;3.816;2023-06-14T05:52:28;19.50;80.60
48686;DHT22;34485;51.536;3.816;2023-06-14T05:54:55;19.50;79.60
48686;DHT22;34485;51.536;3.816;2023-06-14T05:57:21;19.60;79.40
48686;DHT22;34485;51.536;3.816;2023-06-14T05:59:46;19.60;77.60
48686;DHT22;34485;51.536;3.816;2023-06-14T06:02:12;19.60;79.60
48686;DHT22;34485;51.536;3.816;2023-06-14T06:04:37;19.80;82.00
48686;DHT22;34485;51.536;3.816;2023-06-14T06:07:03;19.80;79.70
48686;DHT22;34485;51.536;3.816;2023-06-14T06:09:29;19.90;81.60
48686;DHT22;34485;51.536;3.816;2023-06-14T06:11:55;20.00;80.60
48686;DHT22;34485;51.536;3.816;2023-06-14T06:14:21;20.00;79.10
48686;DHT22;34485;51.536;3.816;2023-06-14T06:16:47;20.00;80.70
48686;DHT22;34485;51.536;3.816;2023-06-14T06:19:12;20.00;80.30
48686;DHT22;34485;51.536;3.816;2023-06-14T06:21:38;20.00;78.20
48686;DHT22;34485;51.536;3.816;2023-06-14T06:24:05;20.10;77.70
48686;DHT22;34485;51.536;3.816;2023-06-14T06:26:31;20.10;77.10
48686;DHT22;34485;51.536;3.816;2023-06-14T06:29:00;20.10;78.20
48686;DHT22;34485;51.536;3.816;2023-06-14T06:31:26;20.20;77.40
48686;DHT22;34485;51.536;3.816;2023-06-14T06:33:56;20.10;77.30
48686;DHT22;34485;51.536;3.816;2023-06-14T06:36:21;20.10;76.30
48686;DHT22;34485;51.536;3.816;2023-06-14T06:38:47;20.10;77.00
48686;DHT22;34485;51.536;3.816;2023-06-14T06:41:13;20.10;77.00
48686;DHT22;34485;51.536;3.816;2023-06-14T06:43:39;20.10;76.80
48686;DHT22;34485;51.536;3.816;2023-06-14T06:46:04;20.10;77.60
48686;DHT22;34485;51.536;3.816;2023-06-14T06:48:30;20.10;77.10
48686;DHT22;34485;51.536;3.816;2023-06-14T06:50:56;20.10;76.70
48686;DHT22;34485;51.536;3.816;2023-06-14T06:53:21;20.20;76.20
48686;DHT22;34485;51.536;3.816;2023-06-14T06:55:48;20.30;78.70
48686;DHT22;34485;51.536;3.816;2023-06-14T06:58:14;20.40;76.10
48686;DHT22;34485;51.536;3.816;2023-06-14T07:00:40;20.40;77.50
48686;DHT22;34485;51.536;3.816;2023-06-14T07:03:06;20.50;76.70
48686;DHT22;34485;51.536;3.816;2023-06-14T07:05:32;20.70;76.00
48686;DHT22;34485;51.536;3.816;2023-06-14T07:07:58;20.90;76.50
48686;DHT22;34485;51.536;3.816;2023-06-14T07:10:24;21.00;75.00
48686;DHT22;34485;51.536;3.816;2023-06-14T07:12:52;21.10;75.20
48686;DHT22;34485;51.536;3.816;2023-06-14T07:15:18;21.40;72.80
48686;DHT22;34485;51.536;3.816;2023-06-14T07:17:43;21.80;74.40
48686;DHT22;34485;51.536;3.816;2023-06-14T07:20:09;22.20;70.60
48686;DHT22;34485;51.536;3.816;2023-06-14T07:22:42;22.90;68.00
48686;DHT22;34485;51.536;3.816;2023-06-14T07:25:09;23.70;63.30
48686;DHT22;34485;51.536;3.816;2023-06-14T07:27:35;24.00;63.00
48686;DHT22;34485;51.536;3.816;2023-06-14T07:30:01;24.60;62.30
48686;DHT22;34485;51.536;3.816;2023-06-14T07:32:27;24.90;59.70
48686;DHT22;34485;51.536;3.816;2023-06-14T07:34:52;25.40;57.50
48686;DHT22;34485;51.536;3.816;2023-06-14T07:37:18;26.10;55.40
48686;DHT22;34485;51.536;3.816;2023-06-14T07:39:43;26.50;54.40
48686;DHT22;34485;51.536;3.816;2023-06-14T07:42:09;26.80;52.90
48686;DHT22;34485;51.536;3.816;2023-06-14T07:44:35;27.00;52.20
48686;DHT22;34485;51.536;3.816;2023-06-14T07:47:01;26.80;51.90
48686;DHT22;34485;51.536;3.816;2023-06-14T07:49:27;27.00;52.80
48686;DHT22;34485;51.536;3.816;2023-06-14T07:51:53;27.10;51.40
48686;DHT22;34485;51.536;3.816;2023-06-14T07:54:19;27.20;50.00
48686;DHT22;34485;51.536;3.816;2023-06-14T07:56:45;27.30;51.20
48686;DHT22;34485;51.536;3.816;2023-06-14T07:59:11;27.50;51.10
48686;DHT22;34485;51.536;3.816;2023-06-14T08:01:37;27.80;50.40
48686;DHT22;34485;51.536;3.816;2023-06-14T08:04:02;28.00;49.80
48686;DHT22;34485;51.536;3.816;2023-06-14T08:06:29;27.90;50.70
48686;DHT22;34485;51.536;3.816;2023-06-14T08:08:54;28.00;50.70
48686;DHT22;34485;51.536;3.816;2023-06-14T08:11:20;28.40;48.70
48686;DHT22;34485;51.536;3.816;2023-06-14T08:13:46;28.40;48.60
48686;DHT22;34485;51.536;3.816;2023-06-14T08:16:11;28.20;49.30
48686;DHT22;34485;51.536;3.816;2023-06-14T08:18:37;28.00;50.00
48686;DHT22;34485;51.536;3.816;2023-06-14T08:21:03;28.00;50.80
48686;DHT22;34485;51.536;3.816;2023-06-14T08:23:29;28.00;49.90
48686;DHT22;34485;51.536;3.816;2023-06-14T08:25:55;28.10;48.40
48686;DHT22;34485;51.536;3.816;2023-06-14T08:28:20;28.10;48.80
48686;DHT22;34485;51.536;3.816;2023-06-14T08:30:46;28.20;50.00
48686;DHT22;34485;51.536;3.816;2023-06-14T08:33:12;28.50;48.70
48686;DHT22;34485;51.536;3.816;2023-06-14T08:35:37;28.20;48.80
48686;DHT22;34485;51.536;3.816;2023-06-14T08:38:04;27.80;48.70
48686;DHT22;34485;51.536;3.816;2023-06-14T08:40:30;27.70;48.40
48686;DHT22;34485;51.536;3.816;2023-06-14T08:42:56;27.60;49.20
48686;DHT22;34485;51.536;3.816;2023-06-14T08:45:23;27.60;50.00
48686;DHT22;34485;51.536;3.816;2023-06-14T08:47:50;27.60;47.70
48686;DHT22;34485;51.536;3.816;2023-06-14T08:50:26;27.80;47.00
48686;DHT22;34485;51.536;3.816;2023-06-14T08:52:56;27.90;48.30
48686;DHT22;34485;51.536;3.816;2023-06-14T08:55:26;28.10;48.20
48686;DHT22;34485;51.536;3.816;2023-06-14T08:57:54;28.00;47.10
48686;DHT22;34485;51.536;3.816;2023-06-14T09:00:23;27.80;48.90
48686;DHT22;34485;51.536;3.816;2023-06-14T09:02:50;27.70;48.50
48686;DHT22;34485;51.536;3.816;2023-06-14T09:05:22;27.80;48.30
48686;DHT22;34485;51.536;3.816;2023-06-14T09:07:48;27.90;48.20
48686;DHT22;34485;51.536;3.816;2023-06-14T09:10:16;27.70;46.90
48686;DHT22;34485;51.536;3.816;2023-06-14T09:12:42;27.50;49.50
48686;DHT22;34485;51.536;3.816;2023-06-14T09:15:08;27.60;47.00
48686;DHT22;34485;51.536;3.816;2023-06-14T09:17:40;27.60;47.00
48686;DHT22;34485;51.536;3.816;2023-06-14T09:20:07;27.70;49.20
48686;DHT22;34485;51.536;3.816;2023-06-14T09:22:42;27.90;46.60
48686;DHT22;34485;51.536;3.816;2023-06-14T09:25:08;28.10;46.80
48686;DHT22;34485;51.536;3.816;2023-06-14T09:27:34;28.00;45.40
48686;DHT22;34485;51.536;3.816;2023-06-14T09:30:02;28.00;46.90
48686;DHT22;34485;51.536;3.816;2023-06-14T09:32:28;28.20;46.80
48686;DHT22;34485;51.536;3.816;2023-06-14T09:34:54;28.20;45.70
48686;DHT22;34485;51.536;3.816;2023-06-14T09:37:31;28.50;44.60
48686;DHT22;34485;51.536;3.816;2023-06-14T09:39:57;28.70;44.00
48686;DHT22;34485;51.536;3.816;2023-06-14T09:42:23;28.60;43.40
48686;DHT22;34485;51.536;3.816;2023-06-14T09:44:52;28.80;45.40
48686;DHT22;34485;51.536;3.816;2023-06-14T09:47:18;28.60;45.00
48686;DHT22;34485;51.536;3.816;2023-06-14T09:49:44;28.40;45.30
48686;DHT22;34485;51.536;3.816;2023-06-14T09:52:18;28.10;45.20
48686;DHT22;34485;51.536;3.816;2023-06-14T09:54:44;28.20;44.50
48686;DHT22;34485;51.536;3.816;2023-06-14T09:57:22;28.40;45.60
48686;DHT22;34485;51.536;3.816;2023-06-14T09:59:48;28.40;43.60
48686;DHT22;34485;51.536;3.816;2023-06-14T10:02:36;28.50;46.30
48686;DHT22;34485;51.536;3.816;2023-06-14T10:05:05;28.50;45.50
48686;DHT22;34485;51.536;3.816;2023-06-14T10:07:52;28.30;44.60
48686;DHT22;34485;51.536;3.816;2023-06-14T10:10:19;28.50;45.60
48686;DHT22;34485;51.536;3.816;2023-06-14T10:12:45;28.60;46.00
48686;DHT22;34485;51.536;3.816;2023-06-14T10:15:20;29.00;45.40
48686;DHT22;34485;51.536;3.816;2023-06-14T10:17:56;29.50;43.40
48686;DHT22;34485;51.536;3.816;2023-06-14T10:20:55;29.70;42.40
48686;DHT22;34485;51.536;3.816;2023-06-14T10:23:24;29.80;42.40
48686;DHT22;34485;51.536;3.816;2023-06-14T10:25:56;29.60;43.40
48686;DHT22;34485;51.536;3.816;2023-06-14T10:28:22;29.50;41.90
48686;DHT22;34485;51.536;3.816;2023-06-14T10:33:50;29.00;43.40
48686;DHT22;34485;51.536;3.816;2023-06-14T10:41:23;29.50;44.70
48686;DHT22;34485;51.536;3.816;2023-06-14T10:43:49;29.90;44.80
48686;DHT22;34485;51.536;3.816;2023-06-14T10:46:16;29.80;43.70
48686;DHT22;34485;51.536;3.816;2023-06-14T10:48:43;30.00;42.30
48686;DHT22;34485;51.536;3.816;2023-06-14T10:51:19;30.20;42.20
48686;DHT22;34485;51.536;3.816;2023-06-14T10:53:49;30.50;42.20
48686;DHT22;34485;51.536;3.816;2023-06-14T10:56:29;30.40;41.00
48686;DHT22;34485;51.536;3.816;2023-06-14T10:58:57;30.30;41.30
48686;DHT22;34485;51.536;3.816;2023-06-14T11:01:36;30.40;41.30
48686;DHT22;34485;51.536;3.816;2023-06-14T11:04:10;30.30;41.60
48686;DHT22;34485;51.536;3.816;2023-06-14T11:06:47;30.40;42.00
48686;DHT22;34485;51.536;3.816;2023-06-14T11:12:10;30.60;39.60
48686;DHT22;34485;51.536;3.816;2023-06-14T11:14:39;30.40;40.00
48686;DHT22;34485;51.536;3.816;2023-06-14T11:17:05;30.30;39.30
48686;DHT22;34485;51.536;3.816;2023-06-14T11:19:31;30.00;40.00
48686;DHT22;34485;51.536;3.816;2023-06-14T11:21:57;30.20;41.20
48686;DHT22;34485;51.536;3.816;2023-06-14T11:24:22;30.00;39.30
48686;DHT22;34485;51.536;3.816;2023-06-14T11:26:48;30.00;41.30
48686;DHT22;34485;51.536;3.816;2023-06-14T11:29:16;29.80;40.00
48686;DHT22;34485;51.536;3.816;2023-06-14T11:31:45;29.60;41.00
48686;DHT22;34485;51.536;3.816;2023-06-14T11:34:12;30.00;41.90
48686;DHT22;34485;51.536;3.816;2023-06-14T11:36:38;30.10;39.80
48686;DHT22;34485;51.536;3.816;2023-06-14T11:39:06;29.90;39.30
48686;DHT22;34485;51.536;3.816;2023-06-14T11:41:43;29.50;38.50
48686;DHT22;34485;51.536;3.816;2023-06-14T11:44:09;29.50;40.80
48686;DHT22;34485;51.536;3.816;2023-06-14T11:46:35;29.30;40.30
48686;DHT22;34485;51.536;3.816;2023-06-14T11:49:02;29.10;40.70
48686;DHT22;34485;51.536;3.816;2023-06-14T11:51:33;29.00;39.40
48686;DHT22;34485;51.536;3.816;2023-06-14T11:53:59;28.90;41.40
48686;DHT22;34485;51.536;3.816;2023-06-14T11:56:26;28.70;39.40
48686;DHT22;34485;51.536;3.816;2023-06-14T11:58:52;28.50;40.40
48686;DHT22;34485;51.536;3.816;2023-06-14T12:01:21;28.30;43.10
48686;DHT22;34485;51.536;3.816;2023-06-14T12:03:49;28.20;43.90
48686;DHT22;34485;51.536;3.816;2023-06-14T12:06:14;28.30;41.90
48686;DHT22;34485;51.536;3.816;2023-06-14T12:08:43;28.10;41.10
48686;DHT22;34485;51.536;3.816;2023-06-14T12:11:12;27.90;43.60
48686;DHT22;34485;51.536;3.816;2023-06-14T12:13:39;27.80;42.10
48686;DHT22;34485;51.536;3.816;2023-06-14T12:16:09;27.60;42.00
48686;DHT22;34485;51.536;3.816;2023-06-14T12:18:36;27.50;44.20
48686;DHT22;34485;51.536;3.816;2023-06-14T12:21:05;27.40;43.30
48686;DHT22;34485;51.536;3.816;2023-06-14T12:23:48;27.50;42.90
48686;DHT22;34485;51.536;3.816;2023-06-14T12:26:19;27.30;43.20
48686;DHT22;34485;51.536;3.816;2023-06-14T12:28:46;27.20;42.50
48686;DHT22;34485;51.536;3.816;2023-06-14T12:31:14;27.20;41.50
48686;DHT22;34485;51.536;3.816;2023-06-14T12:33:40;26.90;43.10
48686;DHT22;34485;51.536;3.816;2023-06-14T12:36:10;27.00;43.20
48686;DHT22;34485;51.536;3.816;2023-06-14T12:38:36;27.00;43.40
48686;DHT22;34485;51.536;3.816;2023-06-14T12:41:03;27.00;41.90
48686;DHT22;34485;51.536;3.816;2023-06-14T12:43:28;27.00;41.80
48686;DHT22;34485;51.536;3.816;2023-06-14T12:45:54;27.00;42.00
48686;DHT22;34485;51.536;3.816;2023-06-14T12:48:20;27.00;42.80
48686;DHT22;34485;51.536;3.816;2023-06-14T12:50:46;27.00;42.60
48686;DHT22;34485;51.536;3.816;2023-06-14T12:53:12;26.90;40.60
48686;DHT22;34485;51.536;3.816;2023-06-14T12:55:37;26.90;40.90
48686;DHT22;34485;51.536;3.816;2023-06-14T12:58:03;26.80;41.50
48686;DHT22;34485;51.536;3.816;2023-06-14T13:00:29;26.90;40.80
48686;DHT22;34485;51.536;3.816;2023-06-14T13:02:57;26.80;39.70
48686;DHT22;34485;51.536;3.816;2023-06-14T13:05:23;26.90;41.80
48686;DHT22;34485;51.536;3.816;2023-06-14T13:07:49;26.90;40.50
48686;DHT22;34485;51.536;3.816;2023-06-14T13:10:16;26.90;40.50
48686;DHT22;34485;51.536;3.816;2023-06-14T13:12:41;26.80;40.50
48686;DHT22;34485;51.536;3.816;2023-06-14T13:15:07;26.80;39.80
48686;DHT22;34485;51.536;3.816;2023-06-14T13:17:34;26.70;39.10
48686;DHT22;34485;51.536;3.816;2023-06-14T13:20:05;26.80;40.80
48686;DHT22;34485;51.536;3.816;2023-06-14T13:22:30;26.80;39.80
48686;DHT22;34485;51.536;3.816;2023-06-14T13:24:56;26.90;40.10
48686;DHT22;34485;51.536;3.816;2023-06-14T13:27:22;26.90;39.70
48686;DHT22;34485;51.536;3.816;2023-06-14T13:29:49;27.00;38.60
48686;DHT22;34485;51.536;3.816;2023-06-14T13:32:14;27.00;38.80
48686;DHT22;34485;51.536;3.816;2023-06-14T13:34:40;26.90;38.90
48686;DHT22;34485;51.536;3.816;2023-06-14T13:37:06;26.90;37.60
48686;DHT22;34485;51.536;3.816;2023-06-14T13:39:31;26.90;39.60
48686;DHT22;34485;51.536;3.816;2023-06-14T13:41:57;27.00;38.70
48686;DHT22;34485;51.536;3.816;2023-06-14T13:44:22;26.90;38.50
48686;DHT22;34485;51.536;3.816;2023-06-14T13:46:48;27.00;38.00
48686;DHT22;34485;51.536;3.816;2023-06-14T13:49:14;27.00;39.70
48686;DHT22;34485;51.536;3.816;2023-06-14T13:51:39;27.00;38.80
48686;DHT22;34485;51.536;3.816;2023-06-14T13:54:05;27.00;38.20
48686;DHT22;34485;51.536;3.816;2023-06-14T13:56:30;27.00;37.50
48686;DHT22;34485;51.536;3.816;2023-06-14T13:58:56;27.00;38.50
48686;DHT22;34485;51.536;3.816;2023-06-14T14:01:22;26.90;37.60
48686;DHT22;34485;51.536;3.816;2023-06-14T14:03:48;26.90;38.80
48686;DHT22;34485;51.536;3.816;2023-06-14T14:06:15;26.90;37.60
48686;DHT22;34485;51.536;3.816;2023-06-14T14:08:41;26.80;37.30
48686;DHT22;34485;51.536;3.816;2023-06-14T14:11:07;26.80;40.60
48686;DHT22;34485;51.536;3.816;2023-06-14T14:13:34;26.80;39.00
48686;DHT22;34485;51.536;3.816;2023-06-14T14:16:02;26.90;37.90
48686;DHT22;34485;51.536;3.816;2023-06-14T14:18:28;26.70;37.80
48686;DHT22;34485;51.536;3.816;2023-06-14T14:20:53;26.80;39.40
48686;DHT22;34485;51.536;3.816;2023-06-14T14:23:19;26.70;38.20
48686;DHT22;34485;51.536;3.816;2023-06-14T14:25:46;26.80;40.00
48686;DHT22;34485;51.536;3.816;2023-06-14T14:28:11;26.60;38.60
48686;DHT22;34485;51.536;3.816;2023-06-14T14:30:39;26.80;40.50
48686;DHT22;34485;51.536;3.816;2023-06-14T14:33:05;26.80;39.80
48686;DHT22;34485;51.536;3.816;2023-06-14T14:35:32;26.80;40.30
48686;DHT22;34485;51.536;3.816;2023-06-14T14:37:58;26.80;38.30
48686;DHT22;34485;51.536;3.816;2023-06-14T14:40:23;26.80;40.60
48686;DHT22;34485;51.536;3.816;2023-06-14T14:42:50;26.80;40.10
48686;DHT22;34485;51.536;3.816;2023-06-14T14:45:15;26.70;38.00
48686;DHT22;34485;51.536;3.816;2023-06-14T14:47:41;26.70;36.50
48686;DHT22;34485;51.536;3.816;2023-06-14T14:50:07;26.70;41.20
48686;DHT22;34485;51.536;3.816;2023-06-14T14:52:36;26.60;38.70
48686;DHT22;34485;51.536;3.816;2023-06-14T14:55:02;26.60;41.30
48686;DHT22;34485;51.536;3.816;2023-06-14T14:57:27;26.60;40.20
48686;DHT22;34485;51.536;3.816;2023-06-14T14:59:55;26.60;40.20
48686;DHT22;34485;51.536;3.816;2023-06-14T15:02:21;26.60;40.80
48686;DHT22;34485;51.536;3.816;2023-06-14T15:04:48;26.60;43.10
48686;DHT22;34485;51.536;3.816;2023-06-14T15:07:13;26.60;40.60
48686;DHT22;34485;51.536;3.816;2023-06-14T15:09:39;26.60;42.00
48686;DHT22;34485;51.536;3.816;2023-06-14T15:12:06;26.70;41.10
48686;DHT22;34485;51.536;3.816;2023-06-14T15:14:32;26.70;42.70
48686;DHT22;34485;51.536;3.816;2023-06-14T15:16:58;26.60;39.40
48686;DHT22;34485;51.536;3.816;2023-06-14T15:19:26;26.60;39.90
48686;DHT22;34485;51.536;3.816;2023-06-14T15:21:52;26.60;38.90
48686;DHT22;34485;51.536;3.816;2023-06-14T15:24:18;26.60;40.10
48686;DHT22;34485;51.536;3.816;2023-06-14T15:26:43;26.60;40.50
48686;DHT22;34485;51.536;3.816;2023-06-14T15:29:09;26.50;41.50
48686;DHT22;34485;51.536;3.816;2023-06-14T15:31:35;26.50;41.90
48686;DHT22;34485;51.536;3.816;2023-06-14T15:34:00;26.40;39.90
48686;DHT22;34485;51.536;3.816;2023-06-14T15:36:26;26.30;38.90
48686;DHT22;34485;51.536;3.816;2023-06-14T15:38:52;26.30;42.20
48686;DHT22;34485;51.536;3.816;2023-06-14T15:41:18;26.30;41.40
48686;DHT22;34485;51.536;3.816;2023-06-14T15:43:43;26.40;43.10
48686;DHT22;34485;51.536;3.816;2023-06-14T15:46:09;26.40;41.40
48686;DHT22;34485;51.536;3.816;2023-06-14T15:48:34;26.40;41.80
48686;DHT22;34485;51.536;3.816;2023-06-14T15:51:00;26.30;42.80